Date,TemperatureHighF,TemperatureAvgF,TemperatureLowF,DewpointHighF,DewpointAvgF,DewpointLowF,HumidityHigh,HumidityAvg,HumidityLow,PressureMaxIn,PressureMinIn,WindSpeedMaxMPH,WindSpeedAvgMPH,GustSpeedMaxMPH,PrecipitationSumIn
2013-1-1,24.2,19.9,13.6,17.4,8.9,4.3,78,63,44,30.31,30.17,1,0,1,0.00
2013-1-2,35.8,25.9,15.9,22.0,15.6,6.9,75,65,55,30.25,30.09,0,0,0,0.02
2013-1-3,35.9,31.0,25.7,25.4,21.6,17.0,77,68,53,30.39,30.22,2,0,2,0.00
2013-1-4,44.6,33.1,22.4,25.3,21.0,16.2,81,62,42,30.38,30.19,9,0,9,0.00
2013-1-5,45.2,38.4,31.0,31.3,26.5,21.7,69,62,56,30.20,30.01,11,0,11,0.00
2013-1-6,43.1,31.6,22.7,21.9,18.1,14.9,75,59,34,30.36,30.13,12,0,12,0.00
2013-1-7,51.1,40.8,30.7,27.1,21.8,18.2,61,47,29,30.27,30.00,35,2,35,0.00
2013-1-8,56.2,46.9,39.6,33.5,29.1,26.5,64,51,33,30.14,29.91,27,2,27,0.00
2013-1-9,58.7,45.1,33.1,33.1,28.8,22.0,76,55,25,30.39,30.14,29,2,29,0.00
2013-1-10,50.1,42.6,37.9,49.9,37.0,25.0,100,83,50,30.31,29.68,20,3,20,0.32
2013-1-11,61.2,55.7,50.1,51.0,46.3,36.8,100,73,46,29.70,29.51,24,4,24,0.00
2013-1-12,59.5,31.0,22.4,38.7,16.2,9.0,76,55,26,30.09,29.63,30,4,30,0.00
2013-1-13,26.3,20.1,13.3,10.5,6.4,3.4,65,55,42,30.36,30.06,18,2,18,0.00
2013-1-14,32.4,23.1,15.4,11.5,7.3,3.0,67,52,30,30.52,30.36,15,0,15,0.00
2013-1-15,35.0,25.9,18.1,13.7,10.5,4.2,72,53,28,30.41,30.15,18,0,18,0.00
2013-1-16,47.3,34.3,21.3,29.2,18.4,9.8,64,53,36,30.16,29.99,17,0,17,0.00
2013-1-17,49.4,38.6,29.5,29.6,24.5,19.6,85,59,35,30.45,30.16,18,2,18,0.00
2013-1-18,57.5,47.5,37.3,30.3,27.1,24.9,62,46,30,30.38,29.96,31,5,31,0.00
2013-1-19,61.8,50.5,41.3,31.1,28.0,22.4,58,43,22,30.22,29.91,25,5,25,0.00
2013-1-20,41.2,28.6,20.5,28.1,9.5,5.0,62,45,31,30.40,30.22,19,4,22,0.00
2013-1-21,20.5,18.0,15.9,9.0,2.8,-9.3,71,52,28,30.46,30.39,17,2,18,0.00
2013-1-22,29.1,20.6,13.6,6.0,2.2,-3.5,58,45,32,30.43,30.28,14,2,14,0.00
2013-1-23,46.4,30.0,17.3,20.1,12.8,4.9,64,49,34,30.42,30.17,19,2,19,0.00
2013-1-24,27.6,19.8,8.4,11.5,3.2,-3.4,60,48,39,30.54,30.18,20,5,20,0.00
2013-1-25,47.9,35.1,24.4,20.2,13.7,6.9,54,42,28,30.22,30.14,13,1,13,0.00
2013-1-26,48.2,37.7,29.8,25.7,22.4,19.3,68,54,40,30.30,30.08,33,3,33,0.00
2013-1-27,61.5,49.9,38.5,54.7,43.2,23.7,92,78,52,30.08,29.69,25,3,25,0.13
2013-1-28,74.6,63.9,51.1,59.5,54.5,48.2,93,73,47,29.81,29.57,27,4,27,0.00
2013-1-29,69.4,49.4,35.2,60.2,45.7,33.7,97,88,67,29.61,29.43,27,5,27,1.12
2013-1-30,35.6,27.1,23.6,34.0,20.5,12.0,94,76,59,29.97,29.46,42,5,42,0.01
2013-1-31,25.1,17.5,9.7,16.0,5.2,-3.9,72,58,46,30.51,29.95,32,5,32,0.00